Time;durP1;ratioP1;P1;durP2;ratioP2;P2;SDS_P1;SDS_P2;PMS_P1;PMS_P2;Temp;Humidity;BMP_temperature;BMP_pressure;BME280_temperature;BME280_humidity;BME280_pressure;Samples;Min_cycle;Max_cycle;Signal;HPM_P1;HPM_P2
2022/03/20 00:00:37;;;;;;;17.85;8.90;;;5.80;43.60;;;;;;5113289;28;20028;-20
2022/03/20 00:03:09;;;;;;;16.83;9.40;;;5.80;43.40;;;;;;5113569;28;20019;-20
2022/03/20 00:05:40;;;;;;;21.13;11.57;;;5.80;44.10;;;;;;5113626;28;20066;-20
2022/03/20 00:08:09;;;;;;;16.95;9.40;;;5.80;43.50;;;;;;5113676;28;20482;-20
2022/03/20 00:10:42;;;;;;;18.27;10.93;;;5.70;43.40;;;;;;5114155;28;20027;-20
2022/03/20 00:13:10;;;;;;;14.18;8.60;;;5.80;43.50;;;;;;5113485;28;20096;-20
2022/03/20 00:15:42;;;;;;;15.15;8.20;;;5.70;43.80;;;;;;5113849;28;20032;-20
2022/03/20 00:18:13;;;;;;;13.65;8.05;;;5.70;43.40;;;;;;5113340;28;20158;-20
2022/03/20 00:20:42;;;;;;;19.83;10.00;;;5.70;43.30;;;;;;5113349;28;20118;-20
2022/03/20 00:23:10;;;;;;;16.45;9.55;;;5.70;43.90;;;;;;5113371;28;20387;-20
2022/03/20 00:25:44;;;;;;;20.40;10.38;;;5.70;43.50;;;;;;5113372;28;20111;-20
2022/03/20 00:28:10;;;;;;;;;;;5.60;44.20;;;;;;5113727;28;20082;-20
2022/03/20 00:30:37;;;;;;;19.63;9.73;;;5.60;44.90;;;;;;5113387;28;19911;-20
2022/03/20 00:33:03;;;;;;;16.92;8.73;;;5.60;43.60;;;;;;5113353;28;20536;-20
2022/03/20 00:35:30;;;;;;;16.30;9.77;;;5.50;43.70;;;;;;5113273;28;20036;-20
2022/03/20 00:37:56;;;;;;;14.93;8.73;;;5.50;43.80;;;;;;5115239;28;20047;-20
2022/03/20 00:40:22;;;;;;;20.48;11.15;;;5.50;43.90;;;;;;5117303;28;20387;-20
2022/03/20 00:42:48;;;;;;;17.00;9.40;;;5.50;44.10;;;;;;5117243;28;20023;-20
2022/03/20 00:45:14;;;;;;;20.05;11.18;;;5.40;43.90;;;;;;5117154;28;20417;-20
2022/03/20 00:47:40;;;;;;;18.08;9.40;;;5.40;44.00;;;;;;5115929;28;20023;-20
2022/03/20 00:50:07;;;;;;;15.10;8.60;;;5.40;44.60;;;;;;5117433;27;20357;-20
2022/03/20 00:52:34;;;;;;;18.52;9.05;;;5.40;44.30;;;;;;5116819;28;20034;-20
2022/03/20 00:55:00;;;;;;;22.75;12.27;;;5.40;44.80;;;;;;5116979;28;20602;-20
2022/03/20 00:57:26;;;;;;;23.35;12.95;;;5.40;44.50;;;;;;5116881;27;20108;-20
2022/03/20 00:59:52;;;;;;;22.33;12.38;;;5.30;45.20;;;;;;5116832;28;20042;-20
2022/03/20 01:02:19;;;;;;;24.58;14.25;;;5.30;45.40;;;;;;5116750;27;20051;-19
2022/03/20 01:04:44;;;;;;;25.65;14.40;;;5.30;45.30;;;;;;5116889;28;20024;-20
2022/03/20 01:07:11;;;;;;;22.40;12.25;;;5.30;45.90;;;;;;5116741;28;20483;-20
2022/03/20 01:09:37;;;;;;;27.45;15.82;;;5.30;45.30;;;;;;5116912;28;20399;-20
2022/03/20 01:12:04;;;;;;;27.35;13.43;;;5.30;46.40;;;;;;5116945;28;20042;-20
2022/03/20 01:14:30;;;;;;;31.25;16.52;;;5.30;46.40;;;;;;5116335;28;20495;-20
2022/03/20 01:16:57;;;;;;;24.73;13.02;;;5.30;46.60;;;;;;5116272;28;20501;-20
2022/03/20 01:19:25;;;;;;;30.55;15.85;;;5.30;45.30;;;;;;5116486;28;20031;-20
2022/03/20 01:21:52;;;;;;;30.25;17.00;;;5.30;46.70;;;;;;5116365;28;20031;-20
2022/03/20 01:24:18;;;;;;;19.60;10.90;;;5.30;47.20;;;;;;5116216;28;20065;-21
2022/03/20 01:26:44;;;;;;;27.45;14.88;;;5.20;46.00;;;;;;5116250;28;20475;-20
2022/03/20 01:29:10;;;;;;;26.98;13.07;;;5.30;46.50;;;;;;5115066;28;20433;-20
2022/03/20 01:31:36;;;;;;;23.30;13.18;;;5.40;45.90;;;;;;5116580;28;20471;-20
2022/03/20 01:34:04;;;;;;;27.98;15.25;;;5.40;46.60;;;;;;5116207;28;20080;-20
2022/03/20 01:36:30;;;;;;;24.25;13.25;;;5.30;46.40;;;;;;5116276;28;20099;-20
2022/03/20 01:38:56;;;;;;;27.13;15.57;;;5.40;46.60;;;;;;5116119;28;20053;-20
2022/03/20 01:41:24;;;;;;;25.67;14.60;;;5.40;46.60;;;;;;5116205;28;20036;-20
2022/03/20 01:43:56;;;;;;;21.23;11.82;;;5.40;46.60;;;;;;5116200;28;20019;-20
2022/03/20 01:46:22;;;;;;;20.70;11.65;;;5.50;45.60;;;;;;5115922;28;20023;-21
2022/03/20 01:48:49;;;;;;;22.65;12.82;;;5.50;46.00;;;;;;5116136;28;20375;-20
2022/03/20 01:51:16;;;;;;;19.63;11.40;;;5.50;45.50;;;;;;5116182;28;20035;-20
2022/03/20 01:53:43;;;;;;;18.30;10.77;;;5.50;45.80;;;;;;5114617;28;20078;-20
2022/03/20 01:56:09;;;;;;;22.58;13.32;;;5.50;45.50;;;;;;5116030;28;20110;-21
2022/03/20 01:58:36;;;;;;;22.08;11.57;;;5.50;45.40;;;;;;5115980;28;20031;-20
2022/03/20 02:01:03;;;;;;;23.40;13.15;;;5.50;45.40;;;;;;5115971;28;20487;-20
2022/03/20 02:03:31;;;;;;;18.10;10.13;;;5.40;45.30;;;;;;5116258;28;20027;-20
2022/03/20 02:06:00;;;;;;;27.33;12.73;;;5.40;45.20;;;;;;5115624;28;20464;-20
2022/03/20 02:08:27;;;;;;;18.10;9.50;;;5.50;45.00;;;;;;5115390;28;20031;-21
2022/03/20 02:10:54;;;;;;;19.27;11.25;;;5.40;45.50;;;;;;5115878;28;20023;-20
2022/03/20 02:13:22;;;;;;;18.88;9.77;;;5.40;45.40;;;;;;5115361;28;20077;-20
2022/03/20 02:15:51;;;;;;;18.65;10.50;;;5.40;45.40;;;;;;5115588;28;20027;-20
2022/03/20 02:18:18;;;;;;;24.67;13.95;;;5.40;45.50;;;;;;5115171;28;20407;-21
2022/03/20 02:20:48;;;;;;;20.13;11.40;;;5.30;45.90;;;;;;5115549;28;20035;-20
2022/03/20 02:23:15;;;;;;;20.77;11.05;;;5.30;45.50;;;;;;5115268;28;20073;-20
2022/03/20 02:25:48;;;;;;;23.42;13.05;;;5.30;45.50;;;;;;5115272;27;20023;-20
2022/03/20 02:28:16;;;;;;;19.33;10.80;;;5.30;45.20;;;;;;5115325;28;20019;-21
2022/03/20 02:30:42;;;;;;;16.52;9.75;;;5.20;45.20;;;;;;5115107;28;20011;-20
2022/03/20 02:33:09;;;;;;;15.55;8.13;;;5.20;45.80;;;;;;5115318;28;20024;-20
2022/03/20 02:35:36;;;;;;;17.77;10.30;;;5.20;45.70;;;;;;5114964;28;20054;-20
2022/03/20 02:38:04;;;;;;;20.00;10.60;;;5.10;45.30;;;;;;5115193;28;20024;-20
2022/03/20 02:40:30;;;;;;;19.92;10.18;;;5.10;45.40;;;;;;5114654;28;20027;-20
2022/03/20 02:42:57;;;;;;;16.33;8.65;;;5.10;45.80;;;;;;5114788;28;20035;-20
2022/03/20 02:45:29;;;;;;;18.92;10.85;;;5.10;45.30;;;;;;5114849;28;20540;-20
2022/03/20 02:47:58;;;;;;;14.70;7.60;;;5.10;45.50;;;;;;5115670;28;20380;-20
2022/03/20 02:50:30;;;;;;;24.38;11.10;;;5.10;45.60;;;;;;5113708;28;20353;-21
2022/03/20 02:53:04;;;;;;;21.52;11.90;;;5.00;45.40;;;;;;5114709;28;20024;-20
2022/03/20 02:55:35;;;;;;;14.88;8.65;;;5.00;45.50;;;;;;5115036;27;20020;-20
2022/03/20 02:58:03;;;;;;;17.02;8.25;;;5.00;45.30;;;;;;5114848;28;20133;-20
2022/03/20 03:00:32;;;;;;;16.27;9.07;;;5.00;45.40;;;;;;5113799;28;20023;-20
2022/03/20 03:02:59;;;;;;;13.60;7.93;;;4.90;45.50;;;;;;5114525;27;20034;-20
2022/03/20 03:05:28;;;;;;;15.35;7.97;;;4.90;45.50;;;;;;5114739;28;20103;-20
2022/03/20 03:10:57;;;;;;;17.58;9.43;;;4.90;45.70;;;;;;5115303;28;20106;-20
2022/03/20 03:13:34;;;;;;;17.20;9.20;;;4.90;46.00;;;;;;5114358;28;20026;-20
2022/03/20 03:16:08;;;;;;;12.00;6.78;;;4.90;46.30;;;;;;5114311;28;20031;-21
2022/03/20 03:18:36;;;;;;;12.40;7.30;;;4.80;45.70;;;;;;5114207;28;20035;-20
2022/03/20 03:21:03;;;;;;;13.80;7.55;;;4.80;45.50;;;;;;5112876;28;20031;-20
2022/03/20 03:23:30;;;;;;;14.00;7.25;;;4.80;45.70;;;;;;5114135;28;20059;-20
2022/03/20 03:25:57;;;;;;;21.67;12.10;;;4.80;45.60;;;;;;5114418;28;20023;-20
2022/03/20 03:28:28;;;;;;;22.90;11.98;;;4.80;45.90;;;;;;5113884;28;20091;-20
2022/03/20 03:30:54;;;;;;;15.68;7.78;;;4.80;46.40;;;;;;5114075;28;20027;-20
2022/03/20 03:33:22;;;;;;;14.75;7.65;;;4.80;46.00;;;;;;5113966;28;20026;-20
2022/03/20 03:35:53;;;;;;;15.40;8.15;;;4.80;45.60;;;;;;5113989;28;20034;-20
2022/03/20 03:38:22;;;;;;;25.25;13.13;;;4.80;45.80;;;;;;5113740;28;20440;-20
2022/03/20 03:40:49;;;;;;;14.68;7.72;;;4.80;46.00;;;;;;5114294;28;20027;-20
2022/03/20 03:43:20;;;;;;;16.25;8.57;;;4.80;45.80;;;;;;5114032;28;20028;-20
2022/03/20 03:45:47;;;;;;;19.58;9.75;;;4.80;46.00;;;;;;5114158;28;20031;-20
2022/03/20 03:48:14;;;;;;;17.42;9.52;;;4.80;45.70;;;;;;5113696;27;20491;-21
2022/03/20 03:50:43;;;;;;;15.70;8.18;;;4.80;46.10;;;;;;5113675;28;20023;-20
2022/03/20 03:53:09;;;;;;;13.30;6.85;;;4.80;45.80;;;;;;5114009;28;20023;-20
2022/03/20 03:55:36;;;;;;;13.32;7.47;;;4.80;45.80;;;;;;5113713;28;20030;-20
2022/03/20 03:58:03;;;;;;;15.20;7.95;;;4.80;45.90;;;;;;5113572;28;20028;-19
2022/03/20 04:00:32;;;;;;;18.38;10.00;;;4.80;45.70;;;;;;5113365;28;20027;-20
2022/03/20 04:02:59;;;;;;;15.15;8.32;;;4.70;45.80;;;;;;5113562;28;20019;-20
2022/03/20 04:05:25;;;;;;;15.30;8.27;;;4.70;46.20;;;;;;5112286;28;20020;-20
2022/03/20 04:07:51;;;;;;;17.17;9.30;;;4.70;46.10;;;;;;5113467;28;20066;-20
2022/03/20 04:10:18;;;;;;;19.58;10.65;;;4.70;45.90;;;;;;5113228;28;20043;-21
2022/03/20 04:12:45;;;;;;;19.85;10.18;;;4.70;46.30;;;;;;5116792;28;20092;-20
2022/03/20 04:15:12;;;;;;;18.85;9.57;;;4.70;46.20;;;;;;5117810;28;20111;-20
2022/03/20 04:17:39;;;;;;;13.55;7.88;;;4.60;46.60;;;;;;5117482;28;20056;-20
2022/03/20 04:20:10;;;;;;;16.23;8.07;;;4.60;46.50;;;;;;5117595;28;20035;-20
2022/03/20 04:22:37;;;;;;;17.63;9.27;;;4.60;46.00;;;;;;5117499;28;20094;-20
2022/03/20 04:25:05;;;;;;;14.10;7.13;;;4.60;46.10;;;;;;5116367;28;20391;-20
2022/03/20 04:27:32;;;;;;;17.33;9.23;;;4.60;46.30;;;;;;5116220;28;20390;-20
2022/03/20 04:29:58;;;;;;;16.65;9.00;;;4.60;46.20;;;;;;5117469;28;20121;-20
2022/03/20 04:32:25;;;;;;;22.67;11.07;;;4.60;46.10;;;;;;5118114;28;20031;-20
2022/03/20 04:34:53;;;;;;;14.23;7.97;;;4.50;46.10;;;;;;5117748;27;20102;-20
2022/03/20 04:37:21;;;;;;;19.95;11.10;;;4.50;46.00;;;;;;5117362;28;20063;-20
2022/03/20 04:39:48;;;;;;;21.27;12.15;;;4.50;46.20;;;;;;5118088;28;20028;-20
2022/03/20 04:42:14;;;;;;;19.55;11.93;;;4.50;46.40;;;;;;5117272;28;20024;-21
2022/03/20 04:44:43;;;;;;;17.98;9.68;;;4.50;47.10;;;;;;5117201;28;20035;-20
2022/03/20 04:58:29;;;;;;;17.40;9.80;;;4.40;47.20;;;;;;5117197;28;20028;-20
2022/03/20 04:58:30;;;;;;;14.98;8.50;;;4.40;46.50;;;;;;5117280;28;20103;-20
2022/03/20 05:00:56;;;;;;;;;;;4.40;47.00;;;;;;5117622;28;20035;-20
2022/03/20 05:03:22;;;;;;;13.80;7.65;;;4.40;47.30;;;;;;5117231;28;20430;-20
2022/03/20 05:05:49;;;;;;;20.35;11.40;;;4.40;46.50;;;;;;5116786;28;20027;-20
2022/03/20 05:08:15;;;;;;;16.58;9.70;;;4.40;46.80;;;;;;5116634;28;20106;-21
2022/03/20 05:13:25;;;;;;;16.08;8.05;;;4.40;47.20;;;;;;5117106;28;20426;-20
2022/03/20 05:15:58;;;;;;;18.42;9.75;;;4.30;47.20;;;;;;5116706;28;20035;-23
2022/03/20 05:18:24;;;;;;;20.60;10.40;;;4.30;46.80;;;;;;5116784;28;20031;-20
2022/03/20 05:20:52;;;;;;;18.13;9.50;;;4.30;47.60;;;;;;5116778;28;20093;-20
2022/03/20 05:23:23;;;;;;;18.52;10.38;;;4.30;47.00;;;;;;5116244;28;20020;-20
2022/03/20 05:25:49;;;;;;;21.67;11.93;;;4.30;47.10;;;;;;5116495;28;20031;-20
2022/03/20 05:28:16;;;;;;;13.93;7.68;;;4.40;47.00;;;;;;5116260;28;20479;-21
2022/03/20 05:30:44;;;;;;;15.82;7.05;;;4.30;47.00;;;;;;5116659;28;20072;-21
2022/03/20 05:33:10;;;;;;;18.27;8.70;;;4.30;46.90;;;;;;5116365;28;20055;-20
2022/03/20 05:35:42;;;;;;;15.00;8.40;;;4.30;47.20;;;;;;5116620;28;20027;-20
2022/03/20 05:38:09;;;;;;;18.73;9.43;;;4.30;46.70;;;;;;5116521;28;20463;-20
2022/03/20 05:40:38;;;;;;;14.20;8.20;;;4.40;47.00;;;;;;5115875;28;20031;-20
2022/03/20 05:43:03;;;;;;;16.85;9.30;;;4.40;47.10;;;;;;5116256;28;20028;-20
2022/03/20 05:45:31;;;;;;;13.63;7.18;;;4.40;47.90;;;;;;5116082;28;20027;-20
2022/03/20 05:47:57;;;;;;;15.82;8.73;;;4.40;47.00;;;;;;5116344;28;20107;-20
2022/03/20 05:50:23;;;;;;;16.38;8.60;;;4.40;47.30;;;;;;5115909;28;20542;-20
2022/03/20 05:52:50;;;;;;;21.20;10.60;;;4.50;47.30;;;;;;5116571;28;20107;-20
2022/03/20 05:55:16;;;;;;;20.13;10.35;;;4.50;47.30;;;;;;5116183;28;20047;-20
2022/03/20 06:00:28;;;;;;;18.95;9.68;;;4.60;47.80;;;;;;5115823;28;20085;-20
2022/03/20 06:02:54;;;;;;;27.13;13.77;;;4.70;47.80;;;;;;5116043;28;20019;-20
2022/03/20 06:05:22;;;;;;;18.60;8.73;;;4.80;47.80;;;;;;5116038;28;20487;-20
2022/03/20 06:07:49;;;;;;;22.30;9.95;;;4.80;48.00;;;;;;5115623;28;20055;-20
2022/03/20 06:10:19;;;;;;;17.35;9.38;;;4.90;47.70;;;;;;5115786;28;20516;-21
2022/03/20 06:12:46;;;;;;;19.85;10.80;;;4.90;47.00;;;;;;5115436;28;20026;-20
2022/03/20 06:15:13;;;;;;;21.35;11.35;;;5.10;47.90;;;;;;5115441;28;20387;-20
2022/03/20 06:17:41;;;;;;;17.25;8.98;;;5.10;47.40;;;;;;5115086;28;20052;-20
2022/03/20 06:20:09;;;;;;;21.95;11.55;;;5.30;47.30;;;;;;5115649;28;20036;-20
2022/03/20 06:22:36;;;;;;;25.35;13.02;;;5.40;47.00;;;;;;5115461;28;20030;-20
2022/03/20 06:25:08;;;;;;;17.90;9.40;;;5.50;47.10;;;;;;5116442;28;20032;-20
2022/03/20 06:27:45;;;;;;;18.05;9.98;;;5.60;47.20;;;;;;5115514;28;20094;-22
2022/03/20 06:30:13;;;;;;;19.15;10.40;;;5.80;47.00;;;;;;5115139;28;20436;-21
2022/03/20 06:32:40;;;;;;;23.65;13.00;;;5.90;47.00;;;;;;5115940;28;20012;-20
2022/03/20 06:35:07;;;;;;;21.10;11.57;;;6.10;47.00;;;;;;5112888;28;20031;-21
2022/03/20 06:37:38;;;;;;;19.45;10.90;;;6.20;47.00;;;;;;5115065;28;20024;-20
2022/03/20 06:40:05;;;;;;;20.08;11.63;;;6.40;47.20;;;;;;5115219;28;20034;-20
2022/03/20 06:42:31;;;;;;;20.70;11.45;;;6.50;47.10;;;;;;5114829;28;20433;-20
2022/03/20 06:45:03;;;;;;;19.63;11.18;;;6.70;46.90;;;;;;5115138;28;20456;-20
2022/03/20 06:47:32;;;;;;;22.33;12.35;;;6.80;46.60;;;;;;5114849;28;20016;-20
2022/03/20 06:49:59;;;;;;;17.23;9.88;;;6.90;46.80;;;;;;5114792;28;20031;-20
2022/03/20 06:52:30;;;;;;;24.58;13.63;;;7.10;46.70;;;;;;5114531;28;20019;-20
2022/03/20 06:55:01;;;;;;;25.75;13.27;;;7.30;46.80;;;;;;5113418;28;20479;-20
2022/03/20 06:57:28;;;;;;;23.30;13.18;;;7.40;46.30;;;;;;5115066;28;20026;-20
2022/03/20 06:59:57;;;;;;;22.05;11.70;;;7.50;46.40;;;;;;5114738;27;20433;-19
2022/03/20 07:02:23;;;;;;;20.75;11.98;;;7.70;46.00;;;;;;5115144;28;20030;-20
2022/03/20 07:04:53;;;;;;;22.17;12.88;;;7.90;45.80;;;;;;5115008;28;20031;-20
2022/03/20 07:07:25;;;;;;;24.55;13.65;;;8.00;45.80;;;;;;5113249;28;20026;-19
2022/03/20 07:09:51;;;;;;;22.25;13.93;;;8.10;45.80;;;;;;5114429;28;20540;-20
2022/03/20 07:12:18;;;;;;;20.95;13.10;;;8.30;45.90;;;;;;5114266;28;20023;-20
2022/03/20 07:14:45;;;;;;;27.58;15.85;;;8.40;45.50;;;;;;5114610;28;20038;-20
2022/03/20 07:17:13;;;;;;;28.58;15.77;;;8.60;45.30;;;;;;5114010;28;20381;-20
2022/03/20 07:19:43;;;;;;;26.67;14.80;;;8.70;45.00;;;;;;5114838;28;20481;-20
2022/03/20 07:22:11;;;;;;;22.90;14.23;;;8.90;44.90;;;;;;5114487;28;20032;-20
2022/03/20 07:24:41;;;;;;;27.65;16.92;;;8.90;44.60;;;;;;5114415;28;20052;-20
2022/03/20 07:29:52;;;;;;;22.52;13.45;;;9.30;44.20;;;;;;5114863;28;20538;-20
2022/03/20 07:32:18;;;;;;;28.50;16.83;;;9.40;44.30;;;;;;5114146;28;20051;-20
2022/03/20 07:34:45;;;;;;;31.45;17.23;;;9.50;44.10;;;;;;5113989;28;20417;-19
2022/03/20 07:37:19;;;;;;;25.55;15.00;;;9.70;43.90;;;;;;5113937;28;20036;-20
2022/03/20 07:39:50;;;;;;;31.42;16.77;;;9.80;44.00;;;;;;5114250;28;20463;-20
2022/03/20 07:42:18;;;;;;;27.10;15.75;;;9.90;43.70;;;;;;5113674;28;20042;-21
2022/03/20 07:44:45;;;;;;;30.13;16.10;;;10.10;43.70;;;;;;5113793;28;20039;-19
2022/03/20 07:47:22;;;;;;;30.75;16.90;;;10.20;42.90;;;;;;5113949;28;20019;-20
2022/03/20 07:49:50;;;;;;;28.10;16.92;;;10.40;42.80;;;;;;5113977;28;20030;-20
2022/03/20 07:52:18;;;;;;;27.92;15.80;;;10.50;42.20;;;;;;5113822;28;20098;-20
2022/03/20 07:54:45;;;;;;;27.52;15.55;;;10.60;41.60;;;;;;5114019;28;20027;-20
2022/03/20 07:57:11;;;;;;;30.88;17.05;;;10.80;41.00;;;;;;5113550;28;20061;-19
2022/03/20 07:59:37;;;;;;;26.00;15.27;;;10.90;40.80;;;;;;5113991;28;20027;-20
2022/03/20 08:02:05;;;;;;;27.92;16.65;;;11.00;40.70;;;;;;5113546;28;20399;-20
2022/03/20 08:04:31;;;;;;;28.67;17.15;;;11.20;40.60;;;;;;5113337;28;20476;-20
2022/03/20 08:06:57;;;;;;;25.58;15.93;;;11.30;40.20;;;;;;5113575;28;20068;-20
2022/03/20 08:09:23;;;;;;;26.63;16.02;;;11.40;40.20;;;;;;5113820;28;20023;-19
2022/03/20 08:11:49;;;;;;;30.02;16.30;;;11.50;40.00;;;;;;5113430;28;20020;-19
2022/03/20 08:14:15;;;;;;;28.30;15.80;;;11.60;39.90;;;;;;5113262;28;20024;-20
2022/03/20 08:16:41;;;;;;;27.42;17.20;;;11.80;39.90;;;;;;5113220;28;20099;-19
2022/03/20 08:19:09;;;;;;;31.15;18.33;;;11.90;39.30;;;;;;5113362;28;20026;-19
2022/03/20 08:21:35;;;;;;;26.50;15.40;;;12.00;38.00;;;;;;5113261;28;20043;-19
2022/03/20 08:24:02;;;;;;;26.17;16.48;;;12.10;39.10;;;;;;5113407;28;20114;-19
2022/03/20 08:26:34;;;;;;;27.75;16.65;;;12.20;38.80;;;;;;5113294;28;20024;-20
2022/03/20 08:29:02;;;;;;;25.08;14.45;;;12.40;38.70;;;;;;5113721;28;20032;-19
2022/03/20 08:31:29;;;;;;;24.95;15.55;;;12.40;38.90;;;;;;5113331;28;20081;-19
2022/03/20 08:33:59;;;;;;;29.70;17.98;;;12.60;38.20;;;;;;5113277;28;20070;-19
2022/03/20 08:36:26;;;;;;;27.40;17.17;;;12.70;37.40;;;;;;5112997;28;20391;-19
2022/03/20 08:38:53;;;;;;;26.50;16.08;;;12.90;37.30;;;;;;5113260;28;20019;-19
2022/03/20 08:41:19;;;;;;;23.48;14.93;;;12.90;37.30;;;;;;5113155;28;20019;-19
2022/03/20 08:43:45;;;;;;;23.80;14.35;;;13.10;36.40;;;;;;5113435;28;20130;-19
2022/03/20 08:46:11;;;;;;;26.52;16.23;;;13.20;36.80;;;;;;5113391;28;20034;-19
2022/03/20 08:48:39;;;;;;;26.00;14.70;;;13.30;35.20;;;;;;5111963;28;20023;-19
2022/03/20 08:51:05;;;;;;;23.67;13.63;;;13.40;36.10;;;;;;5113101;28;20028;-19
2022/03/20 08:53:33;;;;;;;22.70;14.77;;;13.50;35.50;;;;;;5113128;28;20039;-19
2022/03/20 08:55:59;;;;;;;25.02;15.38;;;13.60;34.60;;;;;;5113419;28;20055;-20
2022/03/20 08:58:25;;;;;;;24.85;14.05;;;13.80;34.50;;;;;;5115346;28;20039;-19
2022/03/20 09:00:51;;;;;;;22.45;14.52;;;13.90;34.60;;;;;;5117659;28;20368;-20
2022/03/20 09:03:17;;;;;;;22.65;13.85;;;14.00;33.20;;;;;;5116897;28;20035;-20
2022/03/20 09:05:44;;;;;;;21.50;13.50;;;14.10;33.80;;;;;;5116836;28;20028;-19
2022/03/20 09:08:10;;;;;;;20.80;13.88;;;14.30;34.00;;;;;;5117030;28;20028;-20
2022/03/20 09:10:35;;;;;;;22.02;13.70;;;14.40;33.50;;;;;;5116639;28;20117;-19
2022/03/20 09:13:02;;;;;;;23.40;14.32;;;14.50;33.20;;;;;;5116567;28;20055;-19
2022/03/20 09:15:30;;;;;;;23.38;14.13;;;14.50;31.80;;;;;;5117683;28;20069;-19
2022/03/20 09:20:42;;;;;;;24.85;14.98;;;14.70;31.90;;;;;;5116912;28;20398;-19
2022/03/20 09:23:11;;;;;;;23.05;14.63;;;14.80;32.20;;;;;;5116522;28;20034;-20
2022/03/20 09:25:37;;;;;;;24.55;14.48;;;14.90;32.00;;;;;;5116805;28;20024;-20
2022/03/20 09:28:05;;;;;;;22.08;14.18;;;15.00;31.60;;;;;;5116563;28;20027;-19
2022/03/20 09:30:32;;;;;;;21.67;14.90;;;15.10;31.80;;;;;;5116206;28;20028;-20
2022/03/20 09:32:58;;;;;;;24.23;15.35;;;15.30;32.20;;;;;;5117071;27;20029;-19
2022/03/20 09:35:24;;;;;;;24.13;14.95;;;15.40;31.70;;;;;;5116900;28;20465;-20
2022/03/20 09:37:49;;;;;;;19.48;13.75;;;15.50;31.60;;;;;;5116555;28;20035;-20
2022/03/20 09:40:15;;;;;;;22.23;14.25;;;15.60;32.00;;;;;;5115926;28;20027;-19
2022/03/20 09:42:42;;;;;;;24.45;15.13;;;15.80;31.80;;;;;;5114893;28;20034;-19
2022/03/20 09:45:09;;;;;;;24.50;14.10;;;15.90;31.60;;;;;;5116423;28;20062;-19
2022/03/20 09:47:39;;;;;;;23.13;14.18;;;16.10;31.20;;;;;;5116375;28;20051;-20
2022/03/20 09:50:06;;;;;;;27.48;15.75;;;16.20;31.30;;;;;;5116049;28;20115;-19
2022/03/20 09:52:34;;;;;;;23.02;14.65;;;16.20;30.10;;;;;;5115792;28;20956;-19
2022/03/20 09:55:01;;;;;;;23.98;15.20;;;16.30;30.30;;;;;;5115918;28;20027;-19
2022/03/20 09:57:29;;;;;;;21.92;14.80;;;16.40;30.40;;;;;;5115757;28;20035;-19
2022/03/20 10:00:01;;;;;;;23.52;15.60;;;16.60;30.70;;;;;;5116167;28;20152;-19
2022/03/20 10:02:28;;;;;;;19.80;13.40;;;16.70;30.40;;;;;;5115607;28;20072;-19
2022/03/20 10:05:05;;;;;;;19.67;13.32;;;16.80;30.90;;;;;;5115749;28;20518;-19
2022/03/20 10:07:40;;;;;;;21.27;13.63;;;17.00;30.50;;;;;;5115684;28;20464;-19
2022/03/20 10:10:15;;;;;;;19.48;13.13;;;17.20;30.80;;;;;;5114372;28;20031;-19
2022/03/20 10:12:47;;;;;;;21.60;13.55;;;17.40;30.50;;;;;;5115430;28;20032;-19
2022/03/20 10:15:38;;;;;;;20.10;13.32;;;17.60;29.60;;;;;;5115968;28;20072;-19
2022/03/20 10:18:17;;;;;;;22.90;15.07;;;17.90;29.30;;;;;;5115568;28;20088;-19
2022/03/20 10:21:01;;;;;;;19.20;12.73;;;18.00;28.70;;;;;;5115412;28;20467;-19
2022/03/20 10:23:37;;;;;;;;;;;18.20;28.40;;;;;;5115859;28;20043;-19
2022/03/20 10:26:12;;;;;;;22.15;13.30;;;18.30;27.80;;;;;;5115332;28;19987;-20
2022/03/20 10:28:44;;;;;;;19.92;12.95;;;18.40;28.40;;;;;;5115228;28;20020;-19
2022/03/20 10:31:20;;;;;;;18.50;12.70;;;18.40;28.50;;;;;;5115262;28;20078;-20
2022/03/20 10:34:09;;;;;;;19.23;12.75;;;18.60;27.90;;;;;;5115471;28;20024;-19
2022/03/20 10:36:36;;;;;;;19.88;13.63;;;18.70;25.40;;;;;;5115269;28;20063;-19
2022/03/20 10:39:14;;;;;;;20.88;14.63;;;18.70;27.10;;;;;;5115030;27;20047;-19
2022/03/20 10:41:40;;;;;;;17.48;11.98;;;18.90;27.40;;;;;;5114938;28;20035;-20
2022/03/20 10:44:18;;;;;;;17.92;12.05;;;18.90;27.50;;;;;;5114843;27;20024;-20
2022/03/20 10:46:56;;;;;;;21.80;12.27;;;19.00;26.60;;;;;;5114882;28;20020;-20
2022/03/20 10:49:23;;;;;;;18.67;11.90;;;19.30;27.70;;;;;;5115185;28;20051;-19
2022/03/20 10:52:04;;;;;;;22.27;13.80;;;19.50;27.20;;;;;;5114804;28;20076;-20
2022/03/20 10:54:49;;;;;;;17.48;12.02;;;19.60;25.90;;;;;;5114813;28;20039;-20
2022/03/20 10:57:16;;;;;;;20.45;13.82;;;19.70;26.50;;;;;;5114610;28;20384;-20
2022/03/20 10:59:44;;;;;;;20.98;13.80;;;19.60;26.00;;;;;;5113373;28;20031;-20
2022/03/20 11:02:24;;;;;;;20.17;14.00;;;19.80;26.50;;;;;;5114365;28;20092;-20
2022/03/20 11:04:51;;;;;;;22.05;14.93;;;19.90;25.30;;;;;;5114843;28;20039;-20
2022/03/20 11:07:18;;;;;;;22.65;14.32;;;20.00;25.20;;;;;;5114871;28;20479;-20
2022/03/20 11:09:51;;;;;;;18.35;13.27;;;20.00;24.90;;;;;;5114476;28;20028;-19
2022/03/20 11:12:29;;;;;;;18.95;12.82;;;20.00;25.60;;;;;;5114631;28;20095;-19
2022/03/20 11:15:03;;;;;;;22.98;13.25;;;20.00;26.00;;;;;;5114731;28;20544;-19
2022/03/20 11:17:49;;;;;;;;;;;20.00;25.40;;;;;;5114647;28;20131;-19
2022/03/20 11:20:18;;;;;;;19.20;12.15;;;20.10;25.10;;;;;;5113025;28;20385;-20
2022/03/20 11:22:52;;;;;;;20.67;13.85;;;20.30;26.30;;;;;;5114184;28;20364;-19
2022/03/20 11:25:23;;;;;;;18.77;12.85;;;20.40;25.80;;;;;;5114537;28;20047;-19
2022/03/20 11:28:01;;;;;;;18.20;13.00;;;20.60;25.50;;;;;;5114411;28;20031;-19
2022/03/20 11:30:33;;;;;;;19.42;12.45;;;20.80;25.90;;;;;;5114163;28;20471;-20
2022/03/20 11:33:00;;;;;;;15.30;11.38;;;21.00;25.50;;;;;;5114507;28;20483;-19
2022/03/20 11:35:30;;;;;;;17.77;12.10;;;21.20;25.50;;;;;;5114009;28;20448;-19
2022/03/20 11:38:12;;;;;;;20.20;11.90;;;21.40;25.20;;;;;;5113944;28;20027;-19
2022/03/20 11:40:41;;;;;;;17.88;12.38;;;21.60;25.10;;;;;;5113840;28;20029;-19
2022/03/20 11:43:22;;;;;;;18.10;11.48;;;21.90;25.00;;;;;;5113732;28;20027;-19
2022/03/20 11:46:13;;;;;;;21.42;12.70;;;22.00;23.90;;;;;;5113900;28;20027;-19
2022/03/20 11:48:40;;;;;;;18.08;12.25;;;22.20;24.00;;;;;;5114633;28;20031;-19
2022/03/20 11:51:06;;;;;;;16.15;11.48;;;22.40;24.10;;;;;;5114099;28;20043;-20
2022/03/20 11:53:36;;;;;;;18.42;12.18;;;22.50;24.60;;;;;;5113998;28;20054;-20
2022/03/20 11:56:02;;;;;;;14.40;10.88;;;22.60;24.00;;;;;;5113706;28;20024;-20
2022/03/20 11:58:40;;;;;;;18.70;12.25;;;22.90;24.40;;;;;;5113379;28;20035;-20
2022/03/20 12:01:09;;;;;;;17.33;11.65;;;22.90;22.80;;;;;;5113944;28;20058;-20
2022/03/20 12:03:54;;;;;;;17.80;12.43;;;22.90;23.60;;;;;;5113910;28;20020;-19
2022/03/20 12:06:52;;;;;;;17.67;11.82;;;23.00;22.00;;;;;;5113677;28;20100;-20
2022/03/20 12:09:39;;;;;;;17.38;11.93;;;23.10;22.10;;;;;;5113559;28;20451;-19
2022/03/20 12:12:20;;;;;;;15.57;10.50;;;23.30;23.20;;;;;;5113463;28;20040;-20
2022/03/20 12:14:53;;;;;;;15.50;10.35;;;23.40;22.10;;;;;;5113501;28;20483;-20
2022/03/20 12:17:20;;;;;;;14.65;10.98;;;23.50;23.20;;;;;;5113313;28;20047;-19
2022/03/20 12:19:49;;;;;;;17.05;10.57;;;23.60;22.60;;;;;;5113716;28;20395;-20
2022/03/20 12:22:21;;;;;;;16.40;11.82;;;23.70;22.80;;;;;;5113138;28;20028;-20
2022/03/20 12:25:03;;;;;;;14.35;9.93;;;23.80;22.40;;;;;;5113425;28;20391;-19
2022/03/20 12:27:32;;;;;;;15.73;10.60;;;23.80;22.30;;;;;;5113656;28;20112;-19
2022/03/20 12:30:16;;;;;;;15.73;10.45;;;24.00;22.80;;;;;;5114192;28;20050;-19
2022/03/20 12:32:48;;;;;;;13.43;10.40;;;24.00;20.50;;;;;;5114478;28;20053;-19
2022/03/20 12:35:18;;;;;;;16.52;10.10;;;24.00;21.30;;;;;;5117424;28;20027;-19
2022/03/20 12:37:44;;;;;;;15.13;10.07;;;24.10;21.60;;;;;;5117738;28;20015;-19
2022/03/20 12:40:18;;;;;;;12.55;8.40;;;24.10;21.10;;;;;;5117395;27;20023;-19
2022/03/20 12:43:13;;;;;;;12.75;9.10;;;24.10;21.70;;;;;;5117803;28;20022;-19
2022/03/20 12:45:44;;;;;;;14.02;8.50;;;24.20;19.20;;;;;;5117665;28;20028;-19
2022/03/20 12:48:21;;;;;;;13.20;8.77;;;24.20;21.30;;;;;;5117184;28;20024;-19
2022/03/20 12:50:55;;;;;;;14.45;8.82;;;24.20;20.90;;;;;;5117206;28;20437;-20
2022/03/20 12:53:23;;;;;;;13.23;9.20;;;24.10;19.90;;;;;;5117358;28;20545;-19
2022/03/20 12:56:02;;;;;;;12.93;9.45;;;23.90;20.30;;;;;;5117082;28;20038;-19
2022/03/20 12:58:28;;;;;;;12.23;8.93;;;24.00;20.30;;;;;;5116764;28;20020;-19
2022/03/20 13:00:58;;;;;;;13.23;8.18;;;24.00;20.70;;;;;;5117195;28;20039;-19
2022/03/20 13:03:27;;;;;;;18.10;10.13;;;24.10;20.30;;;;;;5116942;28;20031;-19
2022/03/20 13:05:57;;;;;;;13.32;9.00;;;24.00;19.40;;;;;;5116893;28;20055;-19
2022/03/20 13:08:26;;;;;;;12.85;8.82;;;24.10;20.40;;;;;;5116606;28;20020;-20
2022/03/20 13:10:54;;;;;;;13.88;9.02;;;24.00;20.30;;;;;;5117134;28;20030;-19